Montbello, Colorado
Current Conditions -  °F | °C
As of 10:58 PM on Tuesday 21 Oct 2014 (Local Time) from KBKF Reporting Station
Broken Clouds Broken Clouds  
Wind Chill: 56°   Ceiling: 11000
Heat Index: 56°   Visibility: 10mi
Dew Point: 38°   Wind: 1mph
Humidity: 51%   Direction: 310°NW
Pressure: 29.99"   Gusts: NA
Location:  39.7897°N, 104.858°W
Report Text: KBKF 220458Z 31001KT 10SM FEW060 BKN110 BKN200 14/04 A2999 RMK AO2A SLP094 T01350035
Loading
Personal Weather Stations






























Interactive Weather Map
Tropical Storm Tracking
New forecast layout! Learn more

10-Day Weather Forecast

Advertisements
Track Severe Weather on mobile